Time;durP1;ratioP1;P1;durP2;ratioP2;P2;SDS_P1;SDS_P2;PMS_P1;PMS_P2;Temp;Humidity;BMP_temperature;BMP_pressure;BME280_temperature;BME280_humidity;BME280_pressure;Samples;Min_cycle;Max_cycle;Signal;HPM_P1;HPM_P2
2022/06/26 00:02:07;;;;;;;5.00;2.42;;;;;;;19.62;70.74;100253.94;1711900;82;20999;-73
2022/06/26 00:04:35;;;;;;;4.78;2.60;;;;;;;19.63;70.69;100261.47;1703921;82;21028;-73
2022/06/26 00:07:03;;;;;;;5.05;2.58;;;;;;;19.66;70.57;100255.22;1708167;83;21482;-73
2022/06/26 00:09:29;;;;;;;3.00;2.47;;;;;;;19.71;70.46;100256.03;1719848;82;21799;-79
2022/06/26 00:11:56;;;;;;;3.80;2.58;;;;;;;19.73;70.33;100259.35;1680406;83;21162;-72
2022/06/26 00:14:23;;;;;;;4.08;2.50;;;;;;;19.75;70.08;100254.63;1718562;83;21055;-72
2022/06/26 00:16:49;;;;;;;5.28;2.35;;;;;;;19.79;69.99;100264.50;1699570;83;20982;-76
2022/06/26 00:19:16;;;;;;;4.33;2.25;;;;;;;19.81;69.92;100261.95;1683010;84;21133;-72
2022/06/26 00:21:43;;;;;;;3.20;2.33;;;;;;;19.82;69.94;100264.12;1750065;80;21787;-73
2022/06/26 00:24:10;;;;;;;3.72;2.30;;;;;;;19.81;69.99;100264.63;1747778;80;20948;-76
2022/06/26 00:26:36;;;;;;;4.28;2.30;;;;;;;19.81;70.08;100274.01;1763368;80;21012;-73
2022/06/26 00:29:03;;;;;;;3.00;2.50;;;;;;;19.79;70.24;100273.88;1745953;82;21000;-70
2022/06/26 00:31:30;;;;;;;3.50;2.40;;;;;;;19.79;70.25;100279.23;1754237;80;20995;-71
2022/06/26 00:33:56;;;;;;;5.62;2.70;;;;;;;19.82;70.37;100282.88;1744369;82;21988;-70
2022/06/26 00:36:23;;;;;;;4.22;2.62;;;;;;;19.82;70.57;100281.54;1745711;81;21013;-70
2022/06/26 00:38:50;;;;;;;3.50;2.40;;;;;;;19.81;70.68;100282.05;1760707;80;20944;-72
2022/06/26 00:41:17;;;;;;;9.30;2.35;;;;;;;19.80;70.85;100285.75;1781738;80;21039;-71
2022/06/26 00:43:43;;;;;;;4.90;2.60;;;;;;;19.80;70.93;100287.09;1749564;82;21063;-71
2022/06/26 00:46:10;;;;;;;3.83;2.40;;;;;;;19.79;71.02;100287.28;1748397;81;21984;-72
2022/06/26 00:48:36;;;;;;;3.52;2.42;;;;;;;19.79;71.09;100280.58;1747703;80;20993;-71
2022/06/26 00:51:03;;;;;;;5.12;2.67;;;;;;;19.80;70.97;100282.23;1752211;80;21040;-71
2022/06/26 00:53:31;;;;;;;4.60;2.70;;;;;;;19.85;70.87;100285.19;1751776;80;21028;-71
2022/06/26 00:55:58;;;;;;;3.87;2.70;;;;;;;19.88;70.78;100293.70;1748852;80;20936;-71
2022/06/26 00:58:25;;;;;;;5.40;2.65;;;;;;;19.91;70.67;100289.31;1748081;80;21912;-74
2022/06/26 01:00:51;;;;;;;6.65;2.70;;;;;;;19.95;70.66;100291.93;1749385;80;21026;-70
2022/06/26 01:03:18;;;;;;;4.25;2.70;;;;;;;19.94;70.67;100291.61;1748464;80;21083;-71
2022/06/26 01:05:45;;;;;;;5.58;2.65;;;;;;;19.95;70.64;100290.59;1757823;80;20997;-70
2022/06/26 01:08:12;;;;;;;4.33;2.67;;;;;;;19.96;70.62;100297.61;1752867;80;21047;-71
2022/06/26 01:10:39;;;;;;;3.72;2.67;;;;;;;19.99;70.44;100301.29;1684558;83;21911;-71
2022/06/26 01:13:07;;;;;;;5.12;2.50;;;;;;;20.01;70.23;100296.56;1686238;83;21068;-71
2022/06/26 01:15:34;;;;;;;4.58;2.40;;;;;;;20.04;70.07;100294.52;1747046;80;21493;-72
2022/06/26 01:18:00;;;;;;;6.28;2.50;;;;;;;20.05;69.94;100293.50;1735784;81;20980;-71
2022/06/26 01:20:27;;;;;;;6.28;2.27;;;;;;;20.06;69.87;100288.46;1749499;82;20963;-71
2022/06/26 01:23:03;;;;;;;4.85;2.62;;;;;;;20.05;69.87;100286.80;1744688;80;21756;-71
2022/06/26 01:25:46;;;;;;;4.55;2.30;;;;;;;20.04;69.91;100293.19;1724950;81;21447;-74
2022/06/26 01:28:13;;;;;;;3.55;2.37;;;;;;;20.03;70.02;100294.20;1724862;81;21033;-73
2022/06/26 01:30:41;;;;;;;3.42;2.17;;;;;;;20.02;70.12;100290.70;1725802;81;21008;-73
2022/06/26 01:33:08;;;;;;;5.50;2.58;;;;;;;20.01;70.17;100288.52;1732782;82;20942;-73
2022/06/26 01:35:35;;;;;;;3.87;2.15;;;;;;;19.99;70.28;100292.41;1701685;83;21843;-73
2022/06/26 01:38:16;;;;;;;6.37;2.45;;;;;;;19.98;70.41;100296.12;1691442;83;21041;-71
2022/06/26 01:40:43;;;;;;;5.70;2.40;;;;;;;19.96;70.50;100295.44;1692508;84;21093;-73
2022/06/26 01:43:14;;;;;;;5.35;2.40;;;;;;;19.93;70.64;100295.31;1689124;84;21053;-72
2022/06/26 01:45:42;;;;;;;6.72;2.30;;;;;;;19.93;70.70;100297.16;1689402;83;20956;-72
2022/06/26 01:48:09;;;;;;;6.75;2.90;;;;;;;19.93;70.73;100297.99;1657560;85;21631;-72
2022/06/26 01:50:36;;;;;;;3.00;2.00;;;;;;;19.94;70.89;100297.48;1686058;85;21349;-72
2022/06/26 01:53:04;;;;;;;5.67;2.47;;;;;;;19.90;71.02;100298.37;1695978;84;21080;-72
2022/06/26 01:55:32;;;;;;;4.50;2.52;;;;;;;19.86;71.15;100300.25;1660012;85;21028;-71
2022/06/26 01:58:04;;;;;;;4.25;2.40;;;;;;;19.83;71.35;100300.11;1684721;84;20960;-71
2022/06/26 02:00:34;;;;;;;3.60;2.30;;;;;;;19.79;71.46;100303.36;1687052;84;21850;-72
2022/06/26 02:03:00;;;;;;;3.83;2.12;;;;;;;19.74;71.58;100306.57;1698942;83;21060;-71
2022/06/26 02:05:27;;;;;;;3.45;1.87;;;;;;;19.66;71.69;100295.92;1675425;84;21005;-72
2022/06/26 02:07:54;;;;;;;4.10;2.12;;;;;;;19.62;71.83;100302.68;1674961;84;21024;-72
2022/06/26 02:15:54;;;;;;;6.15;2.30;;;;;;;19.44;72.57;100305.66;1680247;83;21085;-72
2022/06/26 02:18:20;;;;;;;4.17;2.40;;;;;;;19.39;72.82;100299.98;1685811;83;21063;-73
2022/06/26 02:20:48;;;;;;;3.52;2.22;;;;;;;19.34;73.07;100309.92;1706359;84;21001;-72
2022/06/26 02:23:15;;;;;;;5.10;2.12;;;;;;;19.30;73.33;100300.59;1694636;83;21429;-72
2022/06/26 02:25:42;;;;;;;4.42;2.15;;;;;;;19.30;73.56;100301.93;1719170;82;21849;-72
2022/06/26 02:28:09;;;;;;;5.25;2.22;;;;;;;19.30;73.83;100301.06;1706110;81;20984;-73
2022/06/26 02:30:36;;;;;;;3.20;2.10;;;;;;;19.31;74.08;100305.44;1732926;81;21052;-72
2022/06/26 02:33:03;;;;;;;2.40;2.20;;;;;;;19.31;74.32;100298.23;1724690;81;21455;-74
2022/06/26 02:35:31;;;;;;;9.20;2.72;;;;;;;19.32;74.51;100305.77;1716682;81;22322;-73
2022/06/26 02:37:58;;;;;;;3.45;2.52;;;;;;;19.34;74.61;100306.41;1729209;81;21963;-73
2022/06/26 02:40:26;;;;;;;4.90;2.20;;;;;;;19.37;74.73;100307.38;1727689;81;21061;-73
2022/06/26 02:42:54;;;;;;;4.83;2.50;;;;;;;19.40;74.91;100308.37;1713712;83;21023;-73
2022/06/26 02:45:20;;;;;;;4.45;2.58;;;;;;;19.45;75.02;100312.67;1718889;83;21039;-72
2022/06/26 02:47:47;;;;;;;11.30;2.65;;;;;;;19.51;75.09;100314.64;1714882;81;21028;-72
2022/06/26 02:50:15;;;;;;;4.17;2.47;;;;;;;19.57;75.11;100316.60;1750380;81;22233;-72
2022/06/26 02:52:42;;;;;;;5.37;2.85;;;;;;;19.62;75.03;100310.20;1727906;81;20981;-73
2022/06/26 02:55:10;;;;;;;4.35;2.50;;;;;;;19.67;74.96;100313.66;1716564;82;21368;-74
2022/06/26 02:57:39;;;;;;;3.08;2.60;;;;;;;19.71;74.87;100309.62;1709558;82;21432;-73
2022/06/26 03:00:08;;;;;;;3.72;2.55;;;;;;;19.75;74.82;100309.57;1716998;83;21064;-72
2022/06/26 03:02:35;;;;;;;3.02;2.72;;;;;;;19.73;74.86;100309.76;1718710;81;21842;-72
2022/06/26 03:05:04;;;;;;;3.72;2.70;;;;;;;19.73;74.83;100309.76;1739936;81;21019;-73
2022/06/26 03:07:31;;;;;;;3.12;2.55;;;;;;;19.72;74.78;100305.92;1727289;81;21387;-77
2022/06/26 03:09:59;;;;;;;4.17;2.62;;;;;;;19.72;74.74;100314.80;1712873;83;21384;-72
2022/06/26 03:12:27;;;;;;;4.55;2.80;;;;;;;19.75;74.67;100308.73;1708445;81;21051;-72
2022/06/26 03:14:54;;;;;;;5.87;2.67;;;;;;;19.77;74.62;100310.72;1718812;83;22258;-72
2022/06/26 03:17:21;;;;;;;5.47;2.33;;;;;;;19.80;74.59;100303.68;1718897;82;20966;-72
2022/06/26 03:19:48;;;;;;;4.92;2.70;;;;;;;19.83;74.61;100301.96;1717613;82;21076;-73
2022/06/26 03:22:14;;;;;;;6.87;2.90;;;;;;;19.84;74.58;100296.92;1717757;81;21495;-72
2022/06/26 03:24:41;;;;;;;4.58;2.77;;;;;;;19.84;74.53;100299.09;1723277;82;21548;-73
2022/06/26 03:27:07;;;;;;;6.03;2.83;;;;;;;19.84;74.53;100300.44;1692017;83;21950;-72
2022/06/26 03:29:34;;;;;;;4.15;2.90;;;;;;;19.84;74.61;100300.44;1729068;81;21521;-72
2022/06/26 03:32:03;;;;;;;6.03;2.80;;;;;;;19.88;74.65;100299.55;1734709;81;21048;-73
2022/06/26 03:34:32;;;;;;;3.77;2.58;;;;;;;19.93;74.59;100309.22;1726070;83;21080;-72
2022/06/26 03:37:00;;;;;;;4.62;2.80;;;;;;;19.98;74.55;100301.48;1708259;82;20960;-72
2022/06/26 03:39:26;;;;;;;4.03;2.50;;;;;;;20.03;74.31;100304.93;1701887;83;21911;-72
2022/06/26 03:42:03;;;;;;;4.40;2.80;;;;;;;20.07;74.15;100304.36;1716611;82;21800;-72
2022/06/26 03:44:31;;;;;;;4.50;2.77;;;;;;;20.11;73.99;100304.84;1698655;82;20981;-71
2022/06/26 03:46:58;;;;;;;5.67;2.60;;;;;;;20.13;73.76;100307.66;1694325;84;20986;-71
2022/06/26 03:49:25;;;;;;;3.83;2.50;;;;;;;20.14;73.58;100301.78;1726195;81;21501;-71
2022/06/26 03:51:52;;;;;;;3.95;2.47;;;;;;;20.15;73.55;100298.91;1724318;82;22578;-71
2022/06/26 03:54:19;;;;;;;4.90;2.70;;;;;;;20.17;73.48;100302.73;1725394;82;20959;-72
2022/06/26 03:56:47;;;;;;;4.97;2.72;;;;;;;20.21;73.33;100300.86;1726185;82;21015;-71
2022/06/26 03:59:13;;;;;;;4.08;2.77;;;;;;;20.27;73.24;100308.69;1697699;83;21003;-72
2022/06/26 04:01:41;;;;;;;4.17;2.70;;;;;;;20.33;73.16;100311.94;1726593;81;21358;-72
2022/06/26 04:04:09;;;;;;;9.48;2.83;;;;;;;20.39;72.96;100313.89;1718070;83;21803;-73
2022/06/26 04:06:35;;;;;;;3.62;2.62;;;;;;;20.45;72.69;100310.98;1717894;83;20979;-73
2022/06/26 04:09:08;;;;;;;3.30;2.58;;;;;;;20.50;72.25;100320.14;1737678;81;21057;-73
2022/06/26 04:11:35;;;;;;;5.12;2.80;;;;;;;20.58;72.07;100320.05;1715672;81;21048;-74
2022/06/26 04:14:02;;;;;;;5.53;2.80;;;;;;;20.64;71.62;100315.75;1728401;81;21004;-73
2022/06/26 04:16:30;;;;;;;4.62;2.55;;;;;;;20.68;71.38;100314.38;1726276;83;22443;-74
2022/06/26 04:18:57;;;;;;;4.35;2.70;;;;;;;20.73;71.19;100309.77;1727054;82;20980;-73
2022/06/26 04:21:25;;;;;;;4.85;2.75;;;;;;;20.74;70.56;100320.82;1710543;81;21015;-72
2022/06/26 04:23:52;;;;;;;3.87;2.80;;;;;;;20.75;70.26;100317.98;1694225;83;21411;-71
2022/06/26 04:26:20;;;;;;;4.67;2.45;;;;;;;20.79;70.24;100318.42;1697603;84;20960;-72
2022/06/26 04:28:46;;;;;;;4.33;2.60;;;;;;;20.85;70.19;100321.70;1697587;84;21815;-71
2022/06/26 04:31:13;;;;;;;4.50;2.70;;;;;;;20.90;70.18;100323.28;1697765;84;21063;-71
2022/06/26 04:33:41;;;;;;;3.52;2.50;;;;;;;20.94;69.93;100330.44;1728785;82;20979;-71
2022/06/26 04:36:08;;;;;;;5.20;2.65;;;;;;;20.97;69.64;100324.20;1669821;84;20967;-71
2022/06/26 04:38:36;;;;;;;4.78;2.60;;;;;;;21.03;69.44;100331.47;1710906;82;21927;-71
2022/06/26 04:41:31;;;;;;;4.92;2.50;;;;;;;21.06;69.21;100330.28;1693296;83;22759;-74
2022/06/26 04:43:31;;;;;;;7.92;2.85;;;;;;;21.08;69.05;100327.72;1706946;82;20946;-72
2022/06/26 04:45:57;;;;;;;3.35;2.37;;;;;;;21.12;69.12;100325.47;1696935;84;21024;-73
2022/06/26 04:48:25;;;;;;;4.85;2.72;;;;;;;21.15;68.96;100319.73;1664462;83;21034;-72
2022/06/26 04:50:53;;;;;;;4.58;2.72;;;;;;;21.17;69.01;100315.51;1697756;82;21093;-72
2022/06/26 04:53:20;;;;;;;4.05;2.98;;;;;;;21.20;69.05;100319.97;1688759;83;21947;-72
2022/06/26 04:55:46;;;;;;;3.30;2.80;;;;;;;21.22;69.19;100318.44;1710830;83;21056;-72
2022/06/26 04:58:13;;;;;;;3.98;3.00;;;;;;;21.27;69.28;100321.42;1710463;82;21060;-72
2022/06/26 05:00:40;;;;;;;4.30;3.10;;;;;;;21.35;69.18;100323.47;1690699;83;20960;-71
2022/06/26 05:03:17;;;;;;;6.00;2.70;;;;;;;21.41;68.80;100321.84;1686057;83;21012;-72
2022/06/26 05:05:46;;;;;;;3.27;2.98;;;;;;;21.47;68.52;100327.80;1668337;84;21910;-72
2022/06/26 05:08:20;;;;;;;4.17;2.85;;;;;;;21.54;68.30;100328.70;1711301;83;21207;-73
2022/06/26 05:10:47;;;;;;;5.00;3.22;;;;;;;21.62;68.30;100329.08;1706942;82;21061;-72
2022/06/26 05:13:14;;;;;;;10.50;3.10;;;;;;;21.67;68.03;100331.48;1697592;83;21093;-72
2022/06/26 05:15:43;;;;;;;6.58;3.35;;;;;;;21.74;67.98;100339.60;1706269;82;21060;-72
2022/06/26 05:18:11;;;;;;;3.75;3.08;;;;;;;21.82;67.87;100345.36;1710722;83;22555;-72
2022/06/26 05:20:38;;;;;;;4.47;3.35;;;;;;;21.83;67.53;100347.84;1690134;83;21076;-72
2022/06/26 05:23:07;;;;;;;3.62;3.08;;;;;;;21.84;67.58;100350.84;1692381;83;20956;-72
2022/06/26 05:25:36;;;;;;;5.12;3.22;;;;;;;21.86;67.44;100354.68;1696148;83;21009;-72
2022/06/26 05:28:03;;;;;;;5.30;3.35;;;;;;;21.90;67.50;100356.77;1688230;84;20974;-72
2022/06/26 05:30:30;;;;;;;4.42;3.30;;;;;;;21.98;67.27;100358.48;1693853;83;22336;-72
2022/06/26 05:32:58;;;;;;;5.85;3.30;;;;;;;22.03;67.43;100362.77;1650503;85;21448;-72
2022/06/26 05:35:26;;;;;;;7.15;3.27;;;;;;;22.13;67.12;100373.22;1685735;82;22338;-73
2022/06/26 05:37:53;;;;;;;4.03;3.20;;;;;;;22.17;66.77;100376.64;1690744;83;21018;-74
2022/06/26 05:40:19;;;;;;;5.83;3.00;;;;;;;22.19;66.46;100377.79;1715081;81;20958;-72
2022/06/26 05:42:47;;;;;;;4.00;3.27;;;;;;;22.20;66.49;100386.20;1714068;81;21898;-72
2022/06/26 05:45:14;;;;;;;4.90;3.30;;;;;;;22.21;66.55;100384.66;1697490;82;21473;-71
2022/06/26 05:47:43;;;;;;;3.02;2.72;;;;;;;22.25;66.38;100384.56;1693234;82;21081;-72
2022/06/26 05:50:24;;;;;;;4.08;3.12;;;;;;;22.33;66.11;100393.52;1689520;83;21063;-72
2022/06/26 05:52:58;;;;;;;5.10;3.35;;;;;;;22.41;65.79;100387.47;1713732;82;21004;-72
2022/06/26 05:55:27;;;;;;;4.22;3.60;;;;;;;22.46;64.78;100384.99;1662034;84;21847;-70
2022/06/26 05:58:12;;;;;;;4.80;3.25;;;;;;;22.47;64.20;100385.30;1687472;83;20956;-71
2022/06/26 06:00:43;;;;;;;4.85;3.30;;;;;;;22.47;63.99;100388.00;1694139;83;21522;-72
2022/06/26 06:03:10;;;;;;;6.10;3.45;;;;;;;22.47;64.14;100389.86;1722265;81;21413;-72
2022/06/26 06:05:37;;;;;;;6.83;3.47;;;;;;;22.54;64.31;100397.46;1707647;82;21016;-72
2022/06/26 06:08:05;;;;;;;3.80;3.37;;;;;;;22.56;64.13;100390.84;1715667;83;22238;-72
2022/06/26 06:10:33;;;;;;;5.80;3.20;;;;;;;22.57;63.88;100391.67;1690788;83;21152;-74
2022/06/26 06:13:01;;;;;;;4.72;3.60;;;;;;;22.56;63.56;100387.31;1714609;81;21094;-71
2022/06/26 06:15:28;;;;;;;5.87;3.42;;;;;;;22.57;63.60;100390.32;1745138;80;21483;-72
2022/06/26 06:17:57;;;;;;;4.87;3.50;;;;;;;22.57;63.90;100391.67;1749742;82;21006;-73
2022/06/26 06:20:27;;;;;;;6.22;3.33;;;;;;;22.63;64.03;100390.88;1747581;80;21899;-73
2022/06/26 06:23:02;;;;;;;6.15;3.50;;;;;;;22.69;64.34;100396.00;1748128;80;21503;-76
2022/06/26 06:25:29;;;;;;;3.72;3.27;;;;;;;22.77;64.17;100397.14;1763424;80;21063;-72
2022/06/26 06:27:57;;;;;;;6.33;3.33;;;;;;;22.86;64.11;100395.97;1694443;80;21037;-73
2022/06/26 06:30:26;;;;;;;6.90;3.25;;;;;;;22.93;63.47;100401.39;1745832;80;20988;-76
2022/06/26 06:32:54;;;;;;;4.08;3.50;;;;;;;22.95;62.85;100396.11;1740435;82;21788;-73
2022/06/26 06:35:22;;;;;;;3.87;3.15;;;;;;;23.01;63.06;100391.80;1725589;80;21012;-73
2022/06/26 06:37:49;;;;;;;6.85;3.55;;;;;;;23.10;63.02;100395.97;1746819;82;21427;-73
2022/06/26 06:40:16;;;;;;;7.97;3.50;;;;;;;23.20;63.08;100396.41;1745758;80;20989;-73
2022/06/26 06:42:44;;;;;;;3.90;3.50;;;;;;;23.29;62.95;100399.23;1746866;81;21031;-73
2022/06/26 06:45:12;;;;;;;4.90;3.33;;;;;;;23.38;62.65;100398.00;1738619;80;21907;-74
2022/06/26 06:47:53;;;;;;;13.05;10.25;;;;;;;23.51;62.54;100399.05;1737605;80;21081;-71
2022/06/26 06:50:22;;;;;;;5.35;4.20;;;;;;;23.66;62.12;100395.69;1677207;85;21148;-73
2022/06/26 06:52:48;;;;;;;7.28;6.58;;;;;;;23.77;60.57;100400.98;1684153;84;21430;-71
2022/06/26 06:55:14;;;;;;;5.00;3.80;;;;;;;23.86;60.59;100405.13;1705344;83;21422;-71
2022/06/26 06:57:41;;;;;;;3.90;3.20;;;;;;;23.96;60.57;100398.28;1700387;84;21535;-72
2022/06/26 07:00:10;;;;;;;5.78;3.20;;;;;;;24.07;59.70;100392.77;1710501;83;21127;-73
2022/06/26 07:02:38;;;;;;;4.97;3.30;;;;;;;24.14;59.86;100390.89;1693093;82;21007;-74
2022/06/26 07:05:06;;;;;;;9.05;3.42;;;;;;;24.21;59.51;100390.86;1707683;82;21083;-73
2022/06/26 07:07:33;;;;;;;4.05;3.62;;;;;;;24.23;59.26;100388.28;1710925;83;21318;-73
2022/06/26 07:10:00;;;;;;;6.08;3.60;;;;;;;24.25;59.55;100392.95;1696805;83;21952;-76
2022/06/26 07:12:27;;;;;;;4.92;3.10;;;;;;;24.31;59.55;100395.34;1680740;84;21024;-74
2022/06/26 07:14:54;;;;;;;5.05;3.37;;;;;;;24.34;58.63;100392.23;1710301;82;21053;-72
2022/06/26 07:17:24;;;;;;;5.40;3.30;;;;;;;24.30;57.97;100389.60;1714202;82;21400;-73
2022/06/26 07:19:52;;;;;;;7.30;3.27;;;;;;;24.26;58.01;100391.08;1706300;83;20968;-73
2022/06/26 07:22:18;;;;;;;4.25;3.58;;;;;;;24.24;58.17;100393.98;1690778;85;21924;-72
2022/06/26 07:24:45;;;;;;;7.70;3.83;;;;;;;24.26;57.96;100393.78;1710207;83;21060;-72
2022/06/26 07:27:14;;;;;;;4.67;3.72;;;;;;;24.32;58.26;100382.67;1682418;83;21076;-74
2022/06/26 07:29:42;;;;;;;7.33;3.70;;;;;;;24.41;58.11;100386.28;1716036;83;20969;-74
2022/06/26 07:32:10;;;;;;;8.70;6.28;;;;;;;24.48;56.72;100375.47;1710429;84;21031;-76
2022/06/26 07:34:38;;;;;;;18.32;15.32;;;;;;;24.52;57.36;100374.84;1713584;83;21906;-74
2022/06/26 07:37:04;;;;;;;6.03;4.03;;;;;;;24.66;56.60;100368.86;1716942;81;21044;-76
2022/06/26 07:39:33;;;;;;;4.67;3.12;;;;;;;24.76;56.39;100364.36;1715697;82;21055;-80
2022/06/26 07:41:59;;;;;;;5.62;3.20;;;;;;;24.88;56.46;100367.20;1691021;84;20986;-73
2022/06/26 07:44:29;;;;;;;4.45;3.25;;;;;;;24.94;55.29;100369.88;1726853;81;21075;-76
2022/06/26 07:46:57;;;;;;;6.60;3.15;;;;;;;24.95;55.09;100361.25;1722344;81;21664;-76
2022/06/26 07:49:31;;;;;;;6.28;2.92;;;;;;;25.00;55.35;100364.98;1716705;83;21602;-74
2022/06/26 07:51:59;;;;;;;7.12;3.40;;;;;;;25.06;55.18;100370.88;1716855;81;21046;-78
2022/06/26 07:54:26;;;;;;;5.08;3.15;;;;;;;25.09;55.21;100370.47;1745679;80;21486;-80
2022/06/26 07:56:53;;;;;;;5.35;3.40;;;;;;;25.18;54.98;100373.72;1746996;81;21564;-78
2022/06/26 07:59:19;;;;;;;6.30;3.20;;;;;;;25.20;54.79;100373.52;1748491;82;21839;-77
2022/06/26 08:01:46;;;;;;;6.45;3.42;;;;;;;25.22;54.70;100372.25;1754505;80;20984;-78
2022/06/26 08:04:12;;;;;;;8.70;3.25;;;;;;;25.23;54.91;100374.43;1749377;80;21020;-81
2022/06/26 08:06:39;;;;;;;8.58;3.50;;;;;;;25.24;55.28;100370.67;1763962;80;21008;-81
2022/06/26 08:09:06;;;;;;;4.87;3.17;;;;;;;25.30;55.18;100369.30;1787929;80;21035;-78
2022/06/26 08:11:35;;;;;;;3.95;3.33;;;;;;;25.42;55.47;100373.99;1759884;80;22148;-74
2022/06/26 08:14:01;;;;;;;9.05;3.20;;;;;;;25.48;55.42;100378.51;1748651;80;21038;-75
2022/06/26 08:16:28;;;;;;;6.12;3.62;;;;;;;25.55;54.47;100384.17;1760151;80;21039;-77
2022/06/26 08:18:55;;;;;;;10.32;3.42;;;;;;;25.55;54.67;100377.95;1775674;80;21039;-77
2022/06/26 08:24:06;;;;;;;4.87;3.15;;;;;;;25.79;55.75;100375.81;1749200;80;21948;-78
2022/06/26 08:26:33;;;;;;;5.30;3.30;;;;;;;25.96;54.68;100382.83;1752841;80;21070;-80
2022/06/26 08:28:59;;;;;;;5.53;3.67;;;;;;;26.03;53.54;100384.95;1760463;81;21632;-76
2022/06/26 08:31:25;;;;;;;3.65;3.10;;;;;;;26.16;53.27;100382.66;1758121;80;21065;-75
2022/06/26 08:33:52;;;;;;;4.37;3.00;;;;;;;26.26;53.44;100382.98;1761136;80;21093;-80
2022/06/26 08:36:19;;;;;;;6.92;3.20;;;;;;;26.38;53.25;100382.55;1758051;81;22556;-72
2022/06/26 08:38:45;;;;;;;4.42;3.27;;;;;;;26.53;53.33;100376.75;1760632;80;21118;-77
2022/06/26 08:41:12;;;;;;;4.65;3.45;;;;;;;26.65;52.92;100367.36;1759717;81;21027;-76
2022/06/26 08:43:41;;;;;;;3.35;2.87;;;;;;;26.72;52.14;100371.61;1760348;81;21006;-76
2022/06/26 08:46:08;;;;;;;4.28;2.85;;;;;;;26.66;51.29;100371.72;1764406;80;21045;-79
2022/06/26 08:48:43;;;;;;;5.42;3.00;;;;;;;26.56;51.18;100368.72;1757784;81;21775;-80
2022/06/26 08:51:10;;;;;;;3.55;2.90;;;;;;;26.49;51.45;100376.37;1762102;81;20919;-76
2022/06/26 08:53:36;;;;;;;3.85;2.92;;;;;;;26.42;51.53;100368.02;1728669;82;21108;-81
2022/06/26 08:56:03;;;;;;;5.12;3.50;;;;;;;26.45;52.41;100381.97;1696314;83;21043;-81
2022/06/26 08:58:30;;;;;;;3.15;2.70;;;;;;;26.60;53.08;100369.37;1695689;84;21047;-82
2022/06/26 09:00:57;;;;;;;5.62;3.00;;;;;;;26.81;51.79;100368.06;1697610;83;23453;-81
2022/06/26 09:03:24;;;;;;;4.58;2.50;;;;;;;26.95;51.84;100370.09;1699119;84;21594;-78
2022/06/26 09:05:50;;;;;;;3.87;2.80;;;;;;;27.12;52.19;100368.43;1696748;81;21177;-82
2022/06/26 09:08:21;;;;;;;3.65;2.98;;;;;;;27.39;51.75;100368.31;1728739;83;20997;-77
2022/06/26 09:10:49;;;;;;;8.10;3.30;;;;;;;27.59;50.78;100368.00;1728581;81;21113;-77
2022/06/26 09:13:16;;;;;;;4.37;3.08;;;;;;;27.74;49.87;100368.94;1701456;83;21833;-79
2022/06/26 09:15:43;;;;;;;5.03;3.10;;;;;;;27.85;49.42;100368.12;1722871;82;21052;-76
2022/06/26 09:18:11;;;;;;;4.55;2.95;;;;;;;27.93;49.50;100369.13;1730900;81;21007;-79
2022/06/26 09:20:52;;;;;;;3.65;2.70;;;;;;;28.02;48.11;100358.75;1727829;81;21030;-87
2022/06/26 09:23:19;;;;;;;12.50;11.30;;;;;;;28.08;46.48;100355.59;1689160;83;21059;-79
2022/06/26 09:25:45;;;;;;;5.80;4.10;;;;;;;27.99;46.94;100356.52;1705130;82;21917;-80
2022/06/26 09:28:20;;;;;;;5.00;2.80;;;;;;;28.07;48.22;100355.30;1708923;82;21086;-80
2022/06/26 09:30:59;;;;;;;3.35;2.30;;;;;;;28.20;47.24;100359.16;1711570;82;20982;-77
2022/06/26 09:33:36;;;;;;;2.90;2.50;;;;;;;28.29;47.31;100355.58;1696615;83;21083;-79
2022/06/26 09:36:04;;;;;;;6.50;4.97;;;;;;;28.45;47.12;100361.08;1695750;83;21047;-78
2022/06/26 09:38:33;;;;;;;4.10;3.12;;;;;;;28.57;45.62;100348.84;1714001;82;22543;-83
2022/06/26 09:41:06;;;;;;;4.72;2.65;;;;;;;28.64;44.95;100354.11;1703128;83;20997;-79
2022/06/26 09:43:42;;;;;;;;;;;;;;;28.73;44.10;100356.75;1712262;83;21051;-79
2022/06/26 09:46:10;;;;;;;5.00;2.20;;;;;;;28.87;45.01;100350.52;1692656;84;20469;-78
2022/06/26 09:48:37;;;;;;;3.90;1.85;;;;;;;29.08;44.21;100347.12;1700471;83;21395;-81
2022/06/26 09:51:08;;;;;;;2.15;1.80;;;;;;;29.30;42.55;100344.52;1710191;82;23420;-90
2022/06/26 09:53:35;;;;;;;5.17;1.60;;;;;;;29.46;42.66;100345.08;1697382;83;21515;-82
2022/06/26 09:56:03;;;;;;;4.67;1.80;;;;;;;29.64;41.80;100332.61;1700993;83;21072;-79
2022/06/26 09:58:30;;;;;;;4.35;1.80;;;;;;;29.68;40.36;100341.64;1695181;83;21047;-82
2022/06/26 10:06:30;;;;;;;3.35;1.90;;;;;;;29.53;39.99;100348.50;1710087;83;20999;-82
2022/06/26 10:09:00;;;;;;;4.08;1.80;;;;;;;29.53;39.99;100348.50;1687605;83;21467;-85
2022/06/26 10:11:29;;;;;;;4.95;1.90;;;;;;;29.28;40.28;100346.13;1695990;83;21063;-79
2022/06/26 10:14:02;;;;;;;3.20;1.72;;;;;;;29.06;42.54;100345.20;1698366;83;21545;-79
2022/06/26 10:16:38;;;;;;;2.33;1.80;;;;;;;29.06;42.54;100345.20;1699467;83;21943;-81
2022/06/26 10:19:10;;;;;;;3.12;1.62;;;;;;;29.21;42.96;100348.17;1645432;83;21036;-85
2022/06/26 10:21:37;;;;;;;5.25;1.80;;;;;;;29.45;42.69;100349.41;1715237;82;21083;-80
2022/06/26 10:24:04;;;;;;;9.43;1.90;;;;;;;29.79;41.25;100346.16;1710216;83;21067;-81
2022/06/26 10:26:32;;;;;;;3.17;1.60;;;;;;;30.01;40.51;100338.03;1690551;84;21059;-83
2022/06/26 10:29:05;;;;;;;3.00;1.50;;;;;;;30.11;40.20;100339.06;1710508;83;21791;-82
2022/06/26 10:31:49;;;;;;;4.90;1.80;;;;;;;30.24;39.33;100339.77;1684518;84;21103;-81
2022/06/26 10:34:25;;;;;;;2.02;1.25;;;;;;;30.37;38.47;100342.92;1693918;83;21120;-83
2022/06/26 10:37:14;;;;;;;2.12;1.30;;;;;;;30.37;39.48;100342.11;1681653;83;21091;-82
2022/06/26 10:39:45;;;;;;;2.08;1.42;;;;;;;30.30;38.83;100342.82;1684843;83;21049;-71
2022/06/26 10:45:30;;;;;;;3.87;1.27;;;;;;;30.16;39.35;100338.30;1691995;83;20948;-76
2022/06/26 10:48:05;;;;;;;1.70;1.30;;;;;;;30.29;39.65;100343.91;1697631;83;21084;-80
2022/06/26 10:50:36;;;;;;;4.10;1.60;;;;;;;30.44;39.86;100344.11;1691624;83;21013;-80
2022/06/26 10:53:24;;;;;;;4.90;1.30;;;;;;;30.65;39.17;100339.22;1663956;85;20965;-85
2022/06/26 10:55:55;;;;;;;1.65;1.30;;;;;;;30.91;38.08;100344.42;1659163;85;22343;-84
2022/06/26 10:58:29;;;;;;;3.72;1.40;;;;;;;31.11;36.90;100336.16;1695932;83;21071;-84
2022/06/26 11:00:58;;;;;;;4.60;1.50;;;;;;;31.28;37.30;100340.45;1701252;83;21018;-79
2022/06/26 11:03:25;;;;;;;1.77;1.32;;;;;;;31.48;37.76;100343.08;1688293;84;21064;-83
2022/06/26 11:05:58;;;;;;;4.20;1.40;;;;;;;31.49;37.04;100343.36;1688160;83;21012;-83
2022/06/26 11:08:35;;;;;;;3.45;1.20;;;;;;;31.44;37.09;100343.30;1687270;83;21804;-80
2022/06/26 11:11:09;;;;;;;2.42;1.30;;;;;;;31.49;37.27;100346.09;1688177;83;21032;-82
2022/06/26 11:13:40;;;;;;;3.80;1.30;;;;;;;31.53;36.75;100341.73;1688433;84;21023;-82
2022/06/26 11:16:06;;;;;;;6.30;1.37;;;;;;;31.53;36.08;100342.56;1685049;85;21041;-76
2022/06/26 11:18:37;;;;;;;2.30;1.17;;;;;;;31.50;36.34;100343.64;1685628;84;21076;-80
2022/06/26 11:21:04;;;;;;;6.75;1.32;;;;;;;31.38;36.16;100343.00;1687530;84;21931;-81
2022/06/26 11:23:36;;;;;;;2.62;1.50;;;;;;;31.23;36.63;100346.40;1683896;84;21389;-80
2022/06/26 11:26:11;;;;;;;2.70;1.40;;;;;;;31.16;36.65;100339.74;1691440;83;21081;-74
2022/06/26 11:28:41;;;;;;;1.57;1.30;;;;;;;31.19;36.75;100346.07;1693580;84;21072;-78
2022/06/26 11:31:19;;;;;;;3.95;1.32;;;;;;;31.29;36.77;100344.83;1710986;82;21068;-76
2022/06/26 11:33:46;;;;;;;4.90;1.50;;;;;;;31.36;36.35;100347.32;1709392;83;21828;-77
2022/06/26 11:36:14;;;;;;;2.80;1.45;;;;;;;31.49;36.81;100341.45;1712682;82;21034;-79
2022/06/26 11:38:53;;;;;;;2.83;1.42;;;;;;;31.70;36.22;100345.70;1728517;80;21123;-80
2022/06/26 11:41:24;;;;;;;6.28;1.37;;;;;;;32.02;36.94;100344.30;1748613;80;21000;-81
2022/06/26 11:43:55;;;;;;;4.30;1.50;;;;;;;32.42;36.12;100336.88;1749689;82;20965;-81
2022/06/26 11:46:22;;;;;;;2.52;1.30;;;;;;;32.71;34.36;100344.91;1749539;80;22456;-80
2022/06/26 11:48:50;;;;;;;2.83;1.50;;;;;;;32.91;34.57;100337.36;1746818;82;21033;-79